Nave Titan — 3FKP — position and weather

sailwx.info

Track history (hours):
 
Tides and Currents Weather Stations Pressure Air Temp Water Temp Dewpoint Dewpoint Depression Visibility Wind Speed Wind Dir Waves Ship Positions

Nave Titan

Last reported at 2018-Apr-20 23:54 UTC. Time now 2018-Apr-21 00:18 UTC.
Position N 29°12' W 094°33'.

Length 183 m; draft 8 m.

Type: Ship. MMSI: 353962000.

Date/timePositionNaut miles runAvg speedWind from/ knotsBaromVisibWave heightAir tempDewpointWater temp
2018-Apr-20 23:54N 29°12' W 094°33'0 0.0
2018-Apr-20 23:30N 29°12' W 094°33'0 0.0
2018-Apr-20 16:54N 29°12' W 094°33'0 0.0
2018-Apr-20 16:27N 29°12' W 094°33'0 0.0
2018-Apr-20 16:00N 29°12' W 094°33'0 0.0
2018-Apr-20 15:30N 29°12' W 094°33'0 0.0
2018-Apr-20 14:21N 29°12' W 094°33'0 0.0
2018-Apr-20 14:00N 29°12' W 094°33'0 0.0
2018-Apr-20 13:24N 29°12' W 094°33'0 0.0
2018-Apr-20 13:00N 29°12' W 094°33'0 0.0
2018-Apr-20 12:24N 29°12' W 094°33'0 0.0
2018-Apr-20 09:18N 29°12' W 094°33'0 0.0
2018-Apr-20 08:09N 29°12' W 094°33'0 0.0
2018-Apr-20 07:57N 29°12' W 094°33'0 0.0
2018-Apr-20 07:27N 29°12' W 094°33'0 0.0
2018-Apr-19 07:48N 29°12' W 094°33'0 0.0
2018-Apr-19 07:27N 29°12' W 094°33'0 0.0
2018-Apr-19 06:57N 29°12' W 094°33'0 0.0
2018-Apr-19 06:27N 29°12' W 094°33'0 0.0
2018-Apr-19 06:00N 29°12' W 094°33'0 0.0
2018-Apr-19 05:21N 29°12' W 094°33'0 0.0
2018-Apr-19 04:57N 29°12' W 094°33'0 0.0
2018-Apr-19 04:27N 29°12' W 094°33'0 0.0
2018-Apr-19 03:54N 29°12' W 094°33'0 0.0
2018-Apr-19 03:09N 29°12' W 094°33'0 0.2
2018-Apr-19 02:45N 29°12' W 094°33'7 8.8
2018-Apr-19 01:54N 29°18' W 094°38'512.9
2018-Apr-19 01:30N 29°21' W 094°43'611.5
2018-Apr-19 01:00N 29°23' W 094°49'612.0
2018-Apr-19 00:30N 29°29' W 094°51'611.8
2018-Apr-19 00:00N 29°34' W 094°55'611.3
2018-Apr-18 23:30N 29°39' W 094°58'5 9.7
2018-Apr-18 23:00N 29°43' W 095°01'4 7.3
2018-Apr-18 22:30N 29°45' W 095°04'1 2.5
2018-Apr-18 21:55N 29°45' W 095°06'0 0.0
2018-Apr-18 21:29N 29°45' W 095°06'0 0.0
2018-Apr-18 02:50N 29°45' W 095°06'0 0.0
2018-Apr-18 02:23N 29°45' W 095°06'0 0.0
2018-Apr-18 01:50N 29°45' W 095°06'0 0.0
2018-Apr-18 01:23N 29°45' W 095°06'0 0.0
2018-Apr-17 10:17N 29°45' W 095°06'0 0.0
2018-Apr-17 08:32N 29°45' W 095°06'0 0.0
2018-Apr-17 08:20N 29°45' W 095°06'0 0.0
2018-Apr-17 07:50N 29°45' W 095°06'0 0.0
2018-Apr-17 07:29N 29°45' W 095°06'0 0.0
2018-Apr-17 06:59N 29°45' W 095°06'0 0.7
2018-Apr-17 06:30N 29°45' W 095°06'3 5.3
2018-Apr-17 06:00N 29°44' W 095°03'3 6.1
2018-Apr-17 05:30N 29°42' W 095°00'5 9.0
2018-Apr-17 05:00N 29°38' W 094°58'510.7
2018-Apr-17 04:30N 29°33' W 094°55'611.2
2018-Apr-17 04:01N 29°29' W 094°51'611.1
2018-Apr-17 03:30N 29°23' W 094°49'4 7.2
2018-Apr-17 03:00N 29°21' W 094°46'510.7
2018-Apr-17 02:30N 29°20' W 094°40'711.8
2018-Apr-17 01:57N 29°16' W 094°34'4 9.9
2018-Apr-17 01:31N 29°12' W 094°33'1 0.0
2018-Apr-16 06:34N 29°11' W 094°33'0 0.1
2018-Apr-16 06:28N 29°11' W 094°33'0 0.0
2018-Apr-15 09:52N 29°11' W 094°33'203 5.6
2018-Apr-13 21:40N 25°48' W 094°47'2 9.0
2018-Apr-13 21:30N 25°47' W 094°49'  
Track history (hours):
 
Tides and Currents Weather Stations Pressure Air Temp Water Temp Dewpoint Dewpoint Depression Visibility Wind Speed Wind Dir Waves Ship Positions

Nave Titan

Last reported at 2018-Apr-20 23:54 UTC. Time now 2018-Apr-21 00:18 UTC.
Position N 29°12' W 094°33'.

Length 183 m; draft 8 m.

Type: Ship. MMSI: 353962000.

Date/timePositionNaut miles runAvg speedWind from/ knotsBaromVisibWave heightAir tempDewpointWater temp
2018-Apr-20 23:54N 29°12' W 094°33'0 0.0
2018-Apr-20 23:30N 29°12' W 094°33'0 0.0
2018-Apr-20 16:54N 29°12' W 094°33'0 0.0
2018-Apr-20 16:27N 29°12' W 094°33'0 0.0
2018-Apr-20 16:00N 29°12' W 094°33'0 0.0
2018-Apr-20 15:30N 29°12' W 094°33'0 0.0
2018-Apr-20 14:21N 29°12' W 094°33'0 0.0
2018-Apr-20 14:00N 29°12' W 094°33'0 0.0
2018-Apr-20 13:24N 29°12' W 094°33'0 0.0
2018-Apr-20 13:00N 29°12' W 094°33'0 0.0
2018-Apr-20 12:24N 29°12' W 094°33'0 0.0
2018-Apr-20 09:18N 29°12' W 094°33'0 0.0
2018-Apr-20 08:09N 29°12' W 094°33'0 0.0
2018-Apr-20 07:57N 29°12' W 094°33'0 0.0
2018-Apr-20 07:27N 29°12' W 094°33'0 0.0
2018-Apr-19 07:48N 29°12' W 094°33'0 0.0
2018-Apr-19 07:27N 29°12' W 094°33'0 0.0
2018-Apr-19 06:57N 29°12' W 094°33'0 0.0
2018-Apr-19 06:27N 29°12' W 094°33'0 0.0
2018-Apr-19 06:00N 29°12' W 094°33'0 0.0
2018-Apr-19 05:21N 29°12' W 094°33'0 0.0
2018-Apr-19 04:57N 29°12' W 094°33'0 0.0
2018-Apr-19 04:27N 29°12' W 094°33'0 0.0
2018-Apr-19 03:54N 29°12' W 094°33'0 0.0
2018-Apr-19 03:09N 29°12' W 094°33'0 0.2
2018-Apr-19 02:45N 29°12' W 094°33'7 8.8
2018-Apr-19 01:54N 29°18' W 094°38'512.9
2018-Apr-19 01:30N 29°21' W 094°43'611.5
2018-Apr-19 01:00N 29°23' W 094°49'612.0
2018-Apr-19 00:30N 29°29' W 094°51'611.8
2018-Apr-19 00:00N 29°34' W 094°55'611.3
2018-Apr-18 23:30N 29°39' W 094°58'5 9.7
2018-Apr-18 23:00N 29°43' W 095°01'4 7.3
2018-Apr-18 22:30N 29°45' W 095°04'1 2.5
2018-Apr-18 21:55N 29°45' W 095°06'0 0.0
2018-Apr-18 21:29N 29°45' W 095°06'0 0.0
2018-Apr-18 02:50N 29°45' W 095°06'0 0.0
2018-Apr-18 02:23N 29°45' W 095°06'0 0.0
2018-Apr-18 01:50N 29°45' W 095°06'0 0.0
2018-Apr-18 01:23N 29°45' W 095°06'0 0.0
2018-Apr-17 10:17N 29°45' W 095°06'0 0.0
2018-Apr-17 08:32N 29°45' W 095°06'0 0.0
2018-Apr-17 08:20N 29°45' W 095°06'0 0.0
2018-Apr-17 07:50N 29°45' W 095°06'0 0.0
2018-Apr-17 07:29N 29°45' W 095°06'0 0.0
2018-Apr-17 06:59N 29°45' W 095°06'0 0.7
2018-Apr-17 06:30N 29°45' W 095°06'3 5.3
2018-Apr-17 06:00N 29°44' W 095°03'3 6.1
2018-Apr-17 05:30N 29°42' W 095°00'5 9.0
2018-Apr-17 05:00N 29°38' W 094°58'510.7
2018-Apr-17 04:30N 29°33' W 094°55'611.2
2018-Apr-17 04:01N 29°29' W 094°51'611.1
2018-Apr-17 03:30N 29°23' W 094°49'4 7.2
2018-Apr-17 03:00N 29°21' W 094°46'510.7
2018-Apr-17 02:30N 29°20' W 094°40'711.8
2018-Apr-17 01:57N 29°16' W 094°34'4 9.9
2018-Apr-17 01:31N 29°12' W 094°33'1 0.0
2018-Apr-16 06:34N 29°11' W 094°33'0 0.1
2018-Apr-16 06:28N 29°11' W 094°33'0 0.0
2018-Apr-15 09:52N 29°11' W 094°33'203 5.6
2018-Apr-13 21:40N 25°48' W 094°47'2 9.0
2018-Apr-13 21:30N 25°47' W 094°49'  

Dump ship's entire track history